sensor_id;sensor_type;location;lat;lon;timestamp;P1;durP1;ratioP1;P2;durP2;ratioP2
15142;SDS011;7672;50.834;6.286;2022-12-07T00:01:35;21.53;;;16.37;;
15142;SDS011;7672;50.834;6.286;2022-12-07T00:04:07;21.07;;;16.47;;
15142;SDS011;7672;50.834;6.286;2022-12-07T00:06:39;23.57;;;16.93;;
15142;SDS011;7672;50.834;6.286;2022-12-07T00:09:12;26.10;;;17.20;;
15142;SDS011;7672;50.834;6.286;2022-12-07T00:11:42;28.20;;;17.77;;
15142;SDS011;7672;50.834;6.286;2022-12-07T00:14:12;22.27;;;16.87;;
15142;SDS011;7672;50.834;6.286;2022-12-07T00:16:42;24.50;;;17.67;;
15142;SDS011;7672;50.834;6.286;2022-12-07T00:19:26;31.03;;;17.88;;
15142;SDS011;7672;50.834;6.286;2022-12-07T00:21:54;25.93;;;17.53;;
15142;SDS011;7672;50.834;6.286;2022-12-07T00:24:21;27.63;;;18.03;;
15142;SDS011;7672;50.834;6.286;2022-12-07T00:26:47;27.43;;;18.87;;
15142;SDS011;7672;50.834;6.286;2022-12-07T00:29:16;21.43;;;17.23;;
15142;SDS011;7672;50.834;6.286;2022-12-07T00:31:45;22.83;;;16.90;;
15142;SDS011;7672;50.834;6.286;2022-12-07T00:34:14;25.47;;;16.87;;
15142;SDS011;7672;50.834;6.286;2022-12-07T00:36:44;23.20;;;16.47;;
15142;SDS011;7672;50.834;6.286;2022-12-07T00:39:11;23.43;;;16.70;;
15142;SDS011;7672;50.834;6.286;2022-12-07T00:41:38;22.60;;;16.17;;
15142;SDS011;7672;50.834;6.286;2022-12-07T00:44:05;22.33;;;16.13;;
15142;SDS011;7672;50.834;6.286;2022-12-07T00:46:32;24.97;;;16.87;;
15142;SDS011;7672;50.834;6.286;2022-12-07T00:48:59;22.00;;;16.07;;
15142;SDS011;7672;50.834;6.286;2022-12-07T00:51:26;20.10;;;16.60;;
15142;SDS011;7672;50.834;6.286;2022-12-07T00:53:53;25.50;;;17.10;;
15142;SDS011;7672;50.834;6.286;2022-12-07T00:56:21;23.70;;;16.97;;
15142;SDS011;7672;50.834;6.286;2022-12-07T00:58:54;20.90;;;17.03;;
15142;SDS011;7672;50.834;6.286;2022-12-07T01:01:27;24.70;;;15.90;;
15142;SDS011;7672;50.834;6.286;2022-12-07T01:03:57;21.73;;;16.23;;
15142;SDS011;7672;50.834;6.286;2022-12-07T01:06:27;24.93;;;17.30;;
15142;SDS011;7672;50.834;6.286;2022-12-07T01:08:54;24.63;;;16.57;;
15142;SDS011;7672;50.834;6.286;2022-12-07T01:11:23;26.50;;;17.60;;
15142;SDS011;7672;50.834;6.286;2022-12-07T01:13:54;22.20;;;15.00;;
15142;SDS011;7672;50.834;6.286;2022-12-07T01:16:23;20.87;;;15.77;;
15142;SDS011;7672;50.834;6.286;2022-12-07T01:18:54;22.60;;;16.43;;
15142;SDS011;7672;50.834;6.286;2022-12-07T01:21:24;21.37;;;15.47;;
15142;SDS011;7672;50.834;6.286;2022-12-07T01:23:58;22.90;;;15.40;;
15142;SDS011;7672;50.834;6.286;2022-12-07T01:26:25;26.27;;;16.33;;
15142;SDS011;7672;50.834;6.286;2022-12-07T01:28:52;22.07;;;15.87;;
15142;SDS011;7672;50.834;6.286;2022-12-07T01:31:22;23.83;;;16.90;;
15142;SDS011;7672;50.834;6.286;2022-12-07T01:33:52;23.53;;;16.43;;
15142;SDS011;7672;50.834;6.286;2022-12-07T01:36:23;19.17;;;14.20;;
15142;SDS011;7672;50.834;6.286;2022-12-07T01:38:58;18.13;;;14.73;;
15142;SDS011;7672;50.834;6.286;2022-12-07T01:41:29;19.67;;;15.00;;
15142;SDS011;7672;50.834;6.286;2022-12-07T01:47:02;19.00;;;14.63;;
15142;SDS011;7672;50.834;6.286;2022-12-07T01:49:42;19.30;;;14.67;;
15142;SDS011;7672;50.834;6.286;2022-12-07T01:52:16;20.90;;;14.70;;
15142;SDS011;7672;50.834;6.286;2022-12-07T01:54:49;19.13;;;14.73;;
15142;SDS011;7672;50.834;6.286;2022-12-07T01:57:20;20.23;;;15.13;;
15142;SDS011;7672;50.834;6.286;2022-12-07T01:59:49;22.07;;;14.87;;
15142;SDS011;7672;50.834;6.286;2022-12-07T02:02:19;24.60;;;14.53;;
15142;SDS011;7672;50.834;6.286;2022-12-07T02:04:52;21.23;;;16.77;;
15142;SDS011;7672;50.834;6.286;2022-12-07T02:07:21;21.50;;;16.13;;
15142;SDS011;7672;50.834;6.286;2022-12-07T02:09:50;23.77;;;17.60;;
15142;SDS011;7672;50.834;6.286;2022-12-07T02:12:16;28.17;;;18.30;;
15142;SDS011;7672;50.834;6.286;2022-12-07T02:14:44;26.43;;;18.03;;
15142;SDS011;7672;50.834;6.286;2022-12-07T02:17:21;24.27;;;17.97;;
15142;SDS011;7672;50.834;6.286;2022-12-07T02:20:17;28.07;;;20.07;;
15142;SDS011;7672;50.834;6.286;2022-12-07T02:31:32;25.77;;;19.93;;
15142;SDS011;7672;50.834;6.286;2022-12-07T02:34:03;26.67;;;18.77;;
15142;SDS011;7672;50.834;6.286;2022-12-07T02:36:39;25.57;;;19.70;;
15142;SDS011;7672;50.834;6.286;2022-12-07T02:39:20;26.83;;;19.60;;
15142;SDS011;7672;50.834;6.286;2022-12-07T02:42:13;25.37;;;18.50;;
15142;SDS011;7672;50.834;6.286;2022-12-07T02:44:52;33.13;;;18.57;;
15142;SDS011;7672;50.834;6.286;2022-12-07T02:47:20;30.40;;;19.63;;
15142;SDS011;7672;50.834;6.286;2022-12-07T02:49:50;25.47;;;18.83;;
15142;SDS011;7672;50.834;6.286;2022-12-07T02:52:18;25.67;;;18.50;;
15142;SDS011;7672;50.834;6.286;2022-12-07T02:54:45;26.67;;;19.07;;
15142;SDS011;7672;50.834;6.286;2022-12-07T03:02:47;27.77;;;18.40;;
15142;SDS011;7672;50.834;6.286;2022-12-07T03:11:08;24.77;;;17.93;;
15142;SDS011;7672;50.834;6.286;2022-12-07T03:13:48;23.30;;;17.20;;
15142;SDS011;7672;50.834;6.286;2022-12-07T03:16:55;25.97;;;17.97;;
15142;SDS011;7672;50.834;6.286;2022-12-07T03:19:32;24.03;;;18.30;;
15142;SDS011;7672;50.834;6.286;2022-12-07T03:22:08;26.57;;;18.47;;
15142;SDS011;7672;50.834;6.286;2022-12-07T03:24:40;23.80;;;16.53;;
15142;SDS011;7672;50.834;6.286;2022-12-07T03:27:15;23.17;;;18.27;;
15142;SDS011;7672;50.834;6.286;2022-12-07T03:29:52;29.43;;;18.73;;
15142;SDS011;7672;50.834;6.286;2022-12-07T03:32:34;25.87;;;18.17;;
15142;SDS011;7672;50.834;6.286;2022-12-07T03:35:29;24.80;;;17.10;;
15142;SDS011;7672;50.834;6.286;2022-12-07T03:38:10;23.13;;;16.67;;
15142;SDS011;7672;50.834;6.286;2022-12-07T03:41:17;24.87;;;17.27;;
15142;SDS011;7672;50.834;6.286;2022-12-07T03:43:51;26.73;;;17.47;;
15142;SDS011;7672;50.834;6.286;2022-12-07T03:51:27;25.27;;;18.33;;
15142;SDS011;7672;50.834;6.286;2022-12-07T03:56:37;23.87;;;17.53;;
15142;SDS011;7672;50.834;6.286;2022-12-07T03:59:05;23.87;;;17.33;;
15142;SDS011;7672;50.834;6.286;2022-12-07T04:01:33;23.20;;;17.00;;
15142;SDS011;7672;50.834;6.286;2022-12-07T04:04:00;25.77;;;17.53;;
15142;SDS011;7672;50.834;6.286;2022-12-07T04:06:27;24.83;;;17.60;;
15142;SDS011;7672;50.834;6.286;2022-12-07T04:08:54;24.60;;;16.30;;
15142;SDS011;7672;50.834;6.286;2022-12-07T04:11:21;24.23;;;17.53;;
15142;SDS011;7672;50.834;6.286;2022-12-07T04:13:47;24.87;;;17.20;;
15142;SDS011;7672;50.834;6.286;2022-12-07T04:16:33;25.33;;;16.93;;
15142;SDS011;7672;50.834;6.286;2022-12-07T04:19:06;26.47;;;17.63;;
15142;SDS011;7672;50.834;6.286;2022-12-07T04:21:32;27.50;;;18.07;;
15142;SDS011;7672;50.834;6.286;2022-12-07T04:23:59;22.00;;;16.70;;
15142;SDS011;7672;50.834;6.286;2022-12-07T04:26:26;30.33;;;18.30;;
15142;SDS011;7672;50.834;6.286;2022-12-07T04:28:53;26.90;;;17.93;;
15142;SDS011;7672;50.834;6.286;2022-12-07T04:31:19;27.00;;;17.47;;
15142;SDS011;7672;50.834;6.286;2022-12-07T04:33:46;25.30;;;16.97;;
15142;SDS011;7672;50.834;6.286;2022-12-07T04:36:13;24.20;;;17.03;;
15142;SDS011;7672;50.834;6.286;2022-12-07T04:38:40;22.03;;;16.37;;
15142;SDS011;7672;50.834;6.286;2022-12-07T04:41:07;22.43;;;16.70;;
15142;SDS011;7672;50.834;6.286;2022-12-07T04:43:35;27.87;;;16.37;;
15142;SDS011;7672;50.834;6.286;2022-12-07T04:46:02;24.27;;;16.53;;
15142;SDS011;7672;50.834;6.286;2022-12-07T04:48:29;22.90;;;18.50;;
15142;SDS011;7672;50.834;6.286;2022-12-07T04:50:56;26.47;;;17.67;;
15142;SDS011;7672;50.834;6.286;2022-12-07T04:53:23;25.20;;;17.30;;
15142;SDS011;7672;50.834;6.286;2022-12-07T04:55:50;21.83;;;16.90;;
15142;SDS011;7672;50.834;6.286;2022-12-07T04:58:17;28.27;;;17.57;;
15142;SDS011;7672;50.834;6.286;2022-12-07T05:00:43;23.27;;;17.40;;
15142;SDS011;7672;50.834;6.286;2022-12-07T05:03:10;24.70;;;16.43;;
15142;SDS011;7672;50.834;6.286;2022-12-07T05:05:39;25.67;;;17.50;;
15142;SDS011;7672;50.834;6.286;2022-12-07T05:08:07;26.40;;;17.67;;
15142;SDS011;7672;50.834;6.286;2022-12-07T05:10:34;26.43;;;16.10;;
15142;SDS011;7672;50.834;6.286;2022-12-07T05:13:01;31.63;;;19.10;;
15142;SDS011;7672;50.834;6.286;2022-12-07T05:15:28;25.23;;;17.40;;
15142;SDS011;7672;50.834;6.286;2022-12-07T05:17:54;23.03;;;15.90;;
15142;SDS011;7672;50.834;6.286;2022-12-07T05:20:21;29.47;;;18.13;;
15142;SDS011;7672;50.834;6.286;2022-12-07T05:22:48;22.80;;;16.10;;
15142;SDS011;7672;50.834;6.286;2022-12-07T05:25:15;25.37;;;16.93;;
15142;SDS011;7672;50.834;6.286;2022-12-07T05:27:42;26.30;;;16.93;;
15142;SDS011;7672;50.834;6.286;2022-12-07T05:30:08;23.43;;;16.57;;
15142;SDS011;7672;50.834;6.286;2022-12-07T05:32:36;29.03;;;18.70;;
15142;SDS011;7672;50.834;6.286;2022-12-07T05:35:03;26.10;;;16.80;;
15142;SDS011;7672;50.834;6.286;2022-12-07T05:37:30;27.87;;;18.03;;
15142;SDS011;7672;50.834;6.286;2022-12-07T05:39:57;28.57;;;17.30;;
15142;SDS011;7672;50.834;6.286;2022-12-07T05:42:24;22.93;;;17.07;;
15142;SDS011;7672;50.834;6.286;2022-12-07T05:44:51;25.23;;;17.00;;
15142;SDS011;7672;50.834;6.286;2022-12-07T05:47:17;29.20;;;16.00;;
15142;SDS011;7672;50.834;6.286;2022-12-07T05:49:44;26.50;;;17.13;;
15142;SDS011;7672;50.834;6.286;2022-12-07T05:52:11;25.07;;;16.30;;
15142;SDS011;7672;50.834;6.286;2022-12-07T05:54:38;29.50;;;16.90;;
15142;SDS011;7672;50.834;6.286;2022-12-07T05:57:05;25.00;;;16.07;;
15142;SDS011;7672;50.834;6.286;2022-12-07T05:59:32;29.40;;;17.67;;
15142;SDS011;7672;50.834;6.286;2022-12-07T06:02:00;24.23;;;15.80;;
15142;SDS011;7672;50.834;6.286;2022-12-07T06:04:37;27.63;;;16.63;;
15142;SDS011;7672;50.834;6.286;2022-12-07T06:07:08;21.73;;;15.67;;
15142;SDS011;7672;50.834;6.286;2022-12-07T06:09:36;26.60;;;15.70;;
15142;SDS011;7672;50.834;6.286;2022-12-07T06:12:03;26.23;;;15.73;;
15142;SDS011;7672;50.834;6.286;2022-12-07T06:14:49;22.37;;;14.83;;
15142;SDS011;7672;50.834;6.286;2022-12-07T06:17:17;23.10;;;15.47;;
15142;SDS011;7672;50.834;6.286;2022-12-07T06:19:43;28.30;;;16.40;;
15142;SDS011;7672;50.834;6.286;2022-12-07T06:22:10;25.97;;;17.03;;
15142;SDS011;7672;50.834;6.286;2022-12-07T06:24:38;24.83;;;16.20;;
15142;SDS011;7672;50.834;6.286;2022-12-07T06:27:05;21.73;;;16.20;;
15142;SDS011;7672;50.834;6.286;2022-12-07T06:29:33;24.87;;;14.77;;
15142;SDS011;7672;50.834;6.286;2022-12-07T06:32:00;20.90;;;14.17;;
15142;SDS011;7672;50.834;6.286;2022-12-07T06:34:27;20.67;;;14.83;;
15142;SDS011;7672;50.834;6.286;2022-12-07T06:36:54;21.63;;;14.90;;
15142;SDS011;7672;50.834;6.286;2022-12-07T06:39:22;22.33;;;15.13;;
15142;SDS011;7672;50.834;6.286;2022-12-07T06:41:52;25.87;;;15.50;;
15142;SDS011;7672;50.834;6.286;2022-12-07T06:44:20;22.23;;;15.83;;
15142;SDS011;7672;50.834;6.286;2022-12-07T06:46:48;21.57;;;15.07;;
15142;SDS011;7672;50.834;6.286;2022-12-07T06:49:16;24.80;;;15.50;;
15142;SDS011;7672;50.834;6.286;2022-12-07T06:51:43;25.90;;;15.90;;
15142;SDS011;7672;50.834;6.286;2022-12-07T06:54:11;26.73;;;16.13;;
15142;SDS011;7672;50.834;6.286;2022-12-07T06:56:39;22.67;;;15.60;;
15142;SDS011;7672;50.834;6.286;2022-12-07T06:59:06;28.80;;;15.83;;
15142;SDS011;7672;50.834;6.286;2022-12-07T07:01:34;21.73;;;16.67;;
15142;SDS011;7672;50.834;6.286;2022-12-07T07:04:02;22.00;;;15.87;;
15142;SDS011;7672;50.834;6.286;2022-12-07T07:06:30;24.53;;;16.73;;
15142;SDS011;7672;50.834;6.286;2022-12-07T07:08:57;26.87;;;16.70;;
15142;SDS011;7672;50.834;6.286;2022-12-07T07:11:23;26.77;;;16.67;;
15142;SDS011;7672;50.834;6.286;2022-12-07T07:13:50;24.20;;;15.80;;
15142;SDS011;7672;50.834;6.286;2022-12-07T07:16:17;28.40;;;16.20;;
15142;SDS011;7672;50.834;6.286;2022-12-07T07:18:44;24.33;;;17.20;;
15142;SDS011;7672;50.834;6.286;2022-12-07T07:21:11;25.73;;;16.30;;
15142;SDS011;7672;50.834;6.286;2022-12-07T07:23:37;24.50;;;16.73;;
15142;SDS011;7672;50.834;6.286;2022-12-07T07:26:04;26.93;;;16.53;;
15142;SDS011;7672;50.834;6.286;2022-12-07T07:28:31;28.43;;;18.17;;
15142;SDS011;7672;50.834;6.286;2022-12-07T07:30:58;26.30;;;16.93;;
15142;SDS011;7672;50.834;6.286;2022-12-07T07:33:25;26.07;;;16.30;;
15142;SDS011;7672;50.834;6.286;2022-12-07T07:35:51;24.83;;;16.50;;
15142;SDS011;7672;50.834;6.286;2022-12-07T07:38:18;25.00;;;16.10;;
15142;SDS011;7672;50.834;6.286;2022-12-07T07:40:45;22.67;;;16.67;;
15142;SDS011;7672;50.834;6.286;2022-12-07T07:43:12;27.40;;;17.17;;
15142;SDS011;7672;50.834;6.286;2022-12-07T07:45:38;31.33;;;17.47;;
15142;SDS011;7672;50.834;6.286;2022-12-07T07:48:06;27.20;;;17.27;;
15142;SDS011;7672;50.834;6.286;2022-12-07T07:50:33;25.50;;;17.10;;
15142;SDS011;7672;50.834;6.286;2022-12-07T07:53:00;27.87;;;17.60;;
15142;SDS011;7672;50.834;6.286;2022-12-07T07:55:26;25.93;;;17.07;;
15142;SDS011;7672;50.834;6.286;2022-12-07T07:57:53;22.90;;;16.57;;
15142;SDS011;7672;50.834;6.286;2022-12-07T08:00:20;27.03;;;17.00;;
15142;SDS011;7672;50.834;6.286;2022-12-07T08:02:48;25.00;;;16.80;;
15142;SDS011;7672;50.834;6.286;2022-12-07T08:05:15;25.73;;;17.33;;
15142;SDS011;7672;50.834;6.286;2022-12-07T08:07:43;25.00;;;16.30;;
15142;SDS011;7672;50.834;6.286;2022-12-07T08:10:10;24.60;;;18.77;;
15142;SDS011;7672;50.834;6.286;2022-12-07T08:12:39;24.80;;;18.13;;
15142;SDS011;7672;50.834;6.286;2022-12-07T08:15:27;24.90;;;17.00;;
15142;SDS011;7672;50.834;6.286;2022-12-07T08:17:57;25.30;;;17.30;;
15142;SDS011;7672;50.834;6.286;2022-12-07T08:20:24;25.13;;;17.57;;
15142;SDS011;7672;50.834;6.286;2022-12-07T08:22:52;25.37;;;16.57;;
15142;SDS011;7672;50.834;6.286;2022-12-07T08:25:18;24.67;;;17.43;;
15142;SDS011;7672;50.834;6.286;2022-12-07T08:27:45;27.40;;;17.43;;
15142;SDS011;7672;50.834;6.286;2022-12-07T08:30:12;22.30;;;16.13;;
15142;SDS011;7672;50.834;6.286;2022-12-07T08:32:39;26.30;;;18.47;;
15142;SDS011;7672;50.834;6.286;2022-12-07T08:35:07;25.97;;;17.23;;
15142;SDS011;7672;50.834;6.286;2022-12-07T08:37:34;24.10;;;16.57;;
15142;SDS011;7672;50.834;6.286;2022-12-07T08:40:01;22.87;;;15.13;;
15142;SDS011;7672;50.834;6.286;2022-12-07T08:42:30;23.53;;;15.63;;
15142;SDS011;7672;50.834;6.286;2022-12-07T08:45:05;23.53;;;15.67;;
15142;SDS011;7672;50.834;6.286;2022-12-07T08:47:36;26.73;;;16.30;;
15142;SDS011;7672;50.834;6.286;2022-12-07T08:50:08;22.93;;;16.50;;
15142;SDS011;7672;50.834;6.286;2022-12-07T08:52:37;28.47;;;16.83;;
15142;SDS011;7672;50.834;6.286;2022-12-07T08:55:07;21.90;;;15.23;;
15142;SDS011;7672;50.834;6.286;2022-12-07T08:57:37;20.50;;;15.03;;
15142;SDS011;7672;50.834;6.286;2022-12-07T09:00:05;19.23;;;14.43;;
15142;SDS011;7672;50.834;6.286;2022-12-07T09:02:33;22.50;;;15.50;;
15142;SDS011;7672;50.834;6.286;2022-12-07T09:05:00;23.87;;;15.80;;
15142;SDS011;7672;50.834;6.286;2022-12-07T09:07:27;23.73;;;15.63;;
15142;SDS011;7672;50.834;6.286;2022-12-07T09:09:55;21.17;;;14.97;;
15142;SDS011;7672;50.834;6.286;2022-12-07T09:12:22;18.23;;;13.73;;
15142;SDS011;7672;50.834;6.286;2022-12-07T09:14:49;22.00;;;13.33;;
15142;SDS011;7672;50.834;6.286;2022-12-07T09:17:16;16.60;;;11.97;;
15142;SDS011;7672;50.834;6.286;2022-12-07T09:19:42;15.97;;;11.50;;
15142;SDS011;7672;50.834;6.286;2022-12-07T09:22:09;15.20;;;11.13;;
15142;SDS011;7672;50.834;6.286;2022-12-07T09:24:36;11.73;;;9.83;;
15142;SDS011;7672;50.834;6.286;2022-12-07T09:27:03;13.10;;;9.47;;
15142;SDS011;7672;50.834;6.286;2022-12-07T09:29:30;13.73;;;9.67;;
15142;SDS011;7672;50.834;6.286;2022-12-07T09:31:57;12.27;;;9.60;;
15142;SDS011;7672;50.834;6.286;2022-12-07T09:34:24;12.70;;;9.97;;
15142;SDS011;7672;50.834;6.286;2022-12-07T09:36:52;12.53;;;10.00;;
15142;SDS011;7672;50.834;6.286;2022-12-07T09:39:19;9.53;;;8.53;;
15142;SDS011;7672;50.834;6.286;2022-12-07T09:41:45;16.77;;;9.83;;
15142;SDS011;7672;50.834;6.286;2022-12-07T09:44:13;16.63;;;9.33;;
15142;SDS011;7672;50.834;6.286;2022-12-07T09:46:52;13.27;;;9.80;;
15142;SDS011;7672;50.834;6.286;2022-12-07T09:49:21;17.93;;;10.80;;
15142;SDS011;7672;50.834;6.286;2022-12-07T09:52:16;12.83;;;10.27;;
15142;SDS011;7672;50.834;6.286;2022-12-07T09:54:51;14.90;;;11.10;;
15142;SDS011;7672;50.834;6.286;2022-12-07T09:57:20;15.00;;;10.80;;
15142;SDS011;7672;50.834;6.286;2022-12-07T10:00:00;17.37;;;12.03;;
15142;SDS011;7672;50.834;6.286;2022-12-07T10:02:37;16.77;;;12.17;;
15142;SDS011;7672;50.834;6.286;2022-12-07T10:05:22;20.37;;;13.63;;
15142;SDS011;7672;50.834;6.286;2022-12-07T10:07:55;21.90;;;13.93;;
15142;SDS011;7672;50.834;6.286;2022-12-07T10:10:26;19.93;;;13.77;;
15142;SDS011;7672;50.834;6.286;2022-12-07T10:13:07;22.97;;;13.77;;
15142;SDS011;7672;50.834;6.286;2022-12-07T10:18:25;20.60;;;14.30;;
15142;SDS011;7672;50.834;6.286;2022-12-07T10:21:00;19.37;;;13.63;;
15142;SDS011;7672;50.834;6.286;2022-12-07T10:26:38;22.33;;;13.73;;
15142;SDS011;7672;50.834;6.286;2022-12-07T10:34:45;25.67;;;14.07;;
15142;SDS011;7672;50.834;6.286;2022-12-07T10:37:18;21.13;;;14.27;;
15142;SDS011;7672;50.834;6.286;2022-12-07T10:39:47;19.40;;;13.93;;
15142;SDS011;7672;50.834;6.286;2022-12-07T10:42:27;22.47;;;14.13;;
15142;SDS011;7672;50.834;6.286;2022-12-07T10:50:57;17.87;;;12.97;;
15142;SDS011;7672;50.834;6.286;2022-12-07T11:10:47;21.63;;;13.77;;
15142;SDS011;7672;50.834;6.286;2022-12-07T11:13:37;16.90;;;13.47;;
15142;SDS011;7672;50.834;6.286;2022-12-07T11:19:28;16.53;;;12.13;;
15142;SDS011;7672;50.834;6.286;2022-12-07T11:22:42;14.67;;;11.07;;
15142;SDS011;7672;50.834;6.286;2022-12-07T11:25:53;15.93;;;12.67;;
15142;SDS011;7672;50.834;6.286;2022-12-07T11:28:38;18.67;;;10.40;;
15142;SDS011;7672;50.834;6.286;2022-12-07T11:37:07;16.83;;;10.70;;
15142;SDS011;7672;50.834;6.286;2022-12-07T11:39:54;19.20;;;10.23;;
15142;SDS011;7672;50.834;6.286;2022-12-07T11:42:29;17.80;;;10.30;;
15142;SDS011;7672;50.834;6.286;2022-12-07T11:47:54;17.67;;;10.23;;
15142;SDS011;7672;50.834;6.286;2022-12-07T11:50:36;13.93;;;9.67;;
15142;SDS011;7672;50.834;6.286;2022-12-07T11:53:15;13.60;;;10.10;;
15142;SDS011;7672;50.834;6.286;2022-12-07T11:55:57;12.47;;;9.30;;
15142;SDS011;7672;50.834;6.286;2022-12-07T12:01:36;15.67;;;11.60;;
15142;SDS011;7672;50.834;6.286;2022-12-07T12:05:02;16.03;;;11.67;;
15142;SDS011;7672;50.834;6.286;2022-12-07T12:07:43;14.57;;;10.20;;
15142;SDS011;7672;50.834;6.286;2022-12-07T12:10:37;15.67;;;10.03;;
15142;SDS011;7672;50.834;6.286;2022-12-07T12:13:22;15.60;;;10.43;;
15142;SDS011;7672;50.834;6.286;2022-12-07T12:16:39;13.00;;;10.47;;
15142;SDS011;7672;50.834;6.286;2022-12-07T12:19:42;12.63;;;9.80;;
15142;SDS011;7672;50.834;6.286;2022-12-07T12:22:24;16.73;;;10.93;;
15142;SDS011;7672;50.834;6.286;2022-12-07T12:25:04;14.20;;;8.60;;
15142;SDS011;7672;50.834;6.286;2022-12-07T12:27:46;11.20;;;8.77;;
15142;SDS011;7672;50.834;6.286;2022-12-07T12:33:12;14.10;;;9.13;;
15142;SDS011;7672;50.834;6.286;2022-12-07T12:36:28;10.53;;;7.73;;
15142;SDS011;7672;50.834;6.286;2022-12-07T12:39:08;16.43;;;9.10;;
15142;SDS011;7672;50.834;6.286;2022-12-07T12:47:01;11.57;;;7.70;;
15142;SDS011;7672;50.834;6.286;2022-12-07T12:49:35;10.90;;;7.27;;
15142;SDS011;7672;50.834;6.286;2022-12-07T12:55:00;12.03;;;7.60;;
15142;SDS011;7672;50.834;6.286;2022-12-07T12:57:45;15.73;;;8.40;;
15142;SDS011;7672;50.834;6.286;2022-12-07T13:02:49;11.83;;;8.70;;
15142;SDS011;7672;50.834;6.286;2022-12-07T13:05:22;13.33;;;7.80;;
15142;SDS011;7672;50.834;6.286;2022-12-07T13:10:44;10.83;;;7.10;;
15142;SDS011;7672;50.834;6.286;2022-12-07T13:15:41;11.47;;;6.63;;
15142;SDS011;7672;50.834;6.286;2022-12-07T13:18:24;12.07;;;6.90;;
15142;SDS011;7672;50.834;6.286;2022-12-07T13:26:04;11.27;;;6.80;;
15142;SDS011;7672;50.834;6.286;2022-12-07T13:29:04;16.53;;;6.90;;
15142;SDS011;7672;50.834;6.286;2022-12-07T13:31:42;11.70;;;7.30;;
15142;SDS011;7672;50.834;6.286;2022-12-07T13:34:35;10.50;;;7.30;;
15142;SDS011;7672;50.834;6.286;2022-12-07T13:40:01;10.13;;;7.50;;
15142;SDS011;7672;50.834;6.286;2022-12-07T13:42:46;9.37;;;7.67;;
15142;SDS011;7672;50.834;6.286;2022-12-07T13:45:20;12.80;;;7.47;;
15142;SDS011;7672;50.834;6.286;2022-12-07T13:48:31;11.03;;;6.80;;
15142;SDS011;7672;50.834;6.286;2022-12-07T13:51:19;11.03;;;7.17;;
15142;SDS011;7672;50.834;6.286;2022-12-07T13:53:53;15.00;;;8.90;;
15142;SDS011;7672;50.834;6.286;2022-12-07T13:56:36;10.87;;;7.70;;
15142;SDS011;7672;50.834;6.286;2022-12-07T13:59:10;12.33;;;6.97;;
15142;SDS011;7672;50.834;6.286;2022-12-07T14:01:46;11.73;;;7.37;;
15142;SDS011;7672;50.834;6.286;2022-12-07T14:07:01;10.57;;;7.67;;
15142;SDS011;7672;50.834;6.286;2022-12-07T14:09:53;14.17;;;8.50;;
15142;SDS011;7672;50.834;6.286;2022-12-07T14:12:32;12.60;;;7.33;;
15142;SDS011;7672;50.834;6.286;2022-12-07T14:15:02;14.17;;;7.60;;
15142;SDS011;7672;50.834;6.286;2022-12-07T14:17:30;12.43;;;8.33;;
15142;SDS011;7672;50.834;6.286;2022-12-07T14:19:58;10.23;;;8.13;;
15142;SDS011;7672;50.834;6.286;2022-12-07T14:22:28;9.40;;;7.47;;
15142;SDS011;7672;50.834;6.286;2022-12-07T14:25:09;9.80;;;7.23;;
15142;SDS011;7672;50.834;6.286;2022-12-07T14:27:51;10.63;;;7.07;;
15142;SDS011;7672;50.834;6.286;2022-12-07T14:30:25;13.63;;;8.70;;
15142;SDS011;7672;50.834;6.286;2022-12-07T14:33:00;13.80;;;8.43;;
15142;SDS011;7672;50.834;6.286;2022-12-07T14:35:32;12.83;;;8.63;;
15142;SDS011;7672;50.834;6.286;2022-12-07T14:37:58;13.93;;;8.03;;
15142;SDS011;7672;50.834;6.286;2022-12-07T14:40:27;16.23;;;8.33;;
15142;SDS011;7672;50.834;6.286;2022-12-07T14:42:57;10.37;;;8.10;;
15142;SDS011;7672;50.834;6.286;2022-12-07T14:45:32;14.07;;;8.10;;
15142;SDS011;7672;50.834;6.286;2022-12-07T14:47:59;10.93;;;7.70;;
15142;SDS011;7672;50.834;6.286;2022-12-07T14:50:49;11.47;;;8.20;;
15142;SDS011;7672;50.834;6.286;2022-12-07T14:53:39;16.63;;;9.43;;
15142;SDS011;7672;50.834;6.286;2022-12-07T14:56:18;9.37;;;7.27;;
15142;SDS011;7672;50.834;6.286;2022-12-07T14:58:45;15.87;;;9.03;;
15142;SDS011;7672;50.834;6.286;2022-12-07T15:01:14;12.23;;;8.23;;
15142;SDS011;7672;50.834;6.286;2022-12-07T15:03:40;15.50;;;9.27;;
15142;SDS011;7672;50.834;6.286;2022-12-07T15:06:10;12.93;;;9.10;;
15142;SDS011;7672;50.834;6.286;2022-12-07T15:08:42;11.87;;;8.87;;
15142;SDS011;7672;50.834;6.286;2022-12-07T15:11:13;15.37;;;9.33;;
15142;SDS011;7672;50.834;6.286;2022-12-07T15:13:42;10.70;;;7.77;;
15142;SDS011;7672;50.834;6.286;2022-12-07T15:16:27;13.50;;;8.13;;
15142;SDS011;7672;50.834;6.286;2022-12-07T15:19:15;12.63;;;8.93;;
15142;SDS011;7672;50.834;6.286;2022-12-07T15:21:54;11.63;;;9.33;;
15142;SDS011;7672;50.834;6.286;2022-12-07T15:24:22;16.27;;;8.03;;
15142;SDS011;7672;50.834;6.286;2022-12-07T15:26:50;12.70;;;7.80;;
15142;SDS011;7672;50.834;6.286;2022-12-07T15:29:18;10.83;;;7.63;;
15142;SDS011;7672;50.834;6.286;2022-12-07T15:31:49;12.10;;;7.73;;
15142;SDS011;7672;50.834;6.286;2022-12-07T15:34:25;12.23;;;7.80;;
15142;SDS011;7672;50.834;6.286;2022-12-07T15:36:58;10.07;;;7.83;;
15142;SDS011;7672;50.834;6.286;2022-12-07T15:39:25;13.30;;;7.97;;
15142;SDS011;7672;50.834;6.286;2022-12-07T15:41:52;10.33;;;8.57;;
15142;SDS011;7672;50.834;6.286;2022-12-07T15:44:18;12.93;;;8.57;;
15142;SDS011;7672;50.834;6.286;2022-12-07T15:47:04;9.43;;;8.43;;
15142;SDS011;7672;50.834;6.286;2022-12-07T15:49:31;11.43;;;8.90;;
15142;SDS011;7672;50.834;6.286;2022-12-07T15:51:58;9.60;;;8.03;;
15142;SDS011;7672;50.834;6.286;2022-12-07T15:54:26;12.40;;;7.70;;
15142;SDS011;7672;50.834;6.286;2022-12-07T15:56:55;12.30;;;7.23;;
15142;SDS011;7672;50.834;6.286;2022-12-07T15:59:22;9.87;;;7.77;;
15142;SDS011;7672;50.834;6.286;2022-12-07T16:01:51;13.47;;;7.60;;
15142;SDS011;7672;50.834;6.286;2022-12-07T16:04:18;12.03;;;9.27;;
15142;SDS011;7672;50.834;6.286;2022-12-07T16:06:45;16.50;;;10.97;;
15142;SDS011;7672;50.834;6.286;2022-12-07T16:09:12;14.53;;;9.37;;
15142;SDS011;7672;50.834;6.286;2022-12-07T16:11:39;14.03;;;8.27;;
15142;SDS011;7672;50.834;6.286;2022-12-07T16:14:06;11.63;;;9.20;;
15142;SDS011;7672;50.834;6.286;2022-12-07T16:16:32;10.77;;;8.80;;
15142;SDS011;7672;50.834;6.286;2022-12-07T16:18:59;12.43;;;9.47;;
15142;SDS011;7672;50.834;6.286;2022-12-07T16:21:26;12.73;;;7.80;;
15142;SDS011;7672;50.834;6.286;2022-12-07T16:23:53;13.47;;;7.73;;
15142;SDS011;7672;50.834;6.286;2022-12-07T16:26:20;12.10;;;8.13;;
15142;SDS011;7672;50.834;6.286;2022-12-07T16:28:48;14.83;;;10.20;;
15142;SDS011;7672;50.834;6.286;2022-12-07T16:31:18;10.50;;;8.00;;
15142;SDS011;7672;50.834;6.286;2022-12-07T16:33:49;10.67;;;7.27;;
15142;SDS011;7672;50.834;6.286;2022-12-07T16:36:19;11.07;;;7.23;;
15142;SDS011;7672;50.834;6.286;2022-12-07T16:39:08;10.53;;;7.10;;
15142;SDS011;7672;50.834;6.286;2022-12-07T16:41:35;12.30;;;7.60;;
15142;SDS011;7672;50.834;6.286;2022-12-07T16:44:06;12.77;;;7.23;;
15142;SDS011;7672;50.834;6.286;2022-12-07T16:46:37;13.63;;;7.70;;
15142;SDS011;7672;50.834;6.286;2022-12-07T16:49:04;10.37;;;7.17;;
15142;SDS011;7672;50.834;6.286;2022-12-07T16:51:31;9.77;;;6.93;;
15142;SDS011;7672;50.834;6.286;2022-12-07T16:54:00;38.37;;;19.90;;
15142;SDS011;7672;50.834;6.286;2022-12-07T16:56:27;44.87;;;26.67;;
15142;SDS011;7672;50.834;6.286;2022-12-07T16:58:57;40.07;;;17.57;;